Time;durP1;ratioP1;P1;durP2;ratioP2;P2;SDS_P1;SDS_P2;PMS_P1;PMS_P2;Temp;Humidity;BMP_temperature;BMP_pressure;BME280_temperature;BME280_humidity;BME280_pressure;Samples;Min_cycle;Max_cycle;Signal;HPM_P1;HPM_P2
2023/06/30 00:01:29;;;;;;;18.02;5.65;;;;;;;;;;5111443;27;20039;-90
2023/06/30 00:03:55;;;;;;;15.07;5.30;;;;;;;;;;5108812;27;20518;-93
2023/06/30 00:06:22;;;;;;;15.25;5.75;;;;;;;;;;5126156;27;20699;-94
2023/06/30 00:08:48;;;;;;;13.18;5.65;;;;;;;;;;5105026;27;20142;-90
2023/06/30 00:11:14;;;;;;;16.23;6.18;;;;;;;;;;5108064;27;20039;-93
2023/06/30 00:13:40;;;;;;;19.08;5.53;;;;;;;;;;5106717;27;20553;-93
2023/06/30 00:16:06;;;;;;;14.32;5.75;;;;;;;;;;5105793;27;20765;-92
2023/06/30 00:18:32;;;;;;;12.52;5.70;;;;;;;;;;5088029;27;20055;-91
2023/06/30 00:20:58;;;;;;;14.90;5.60;;;;;;;;;;5104654;27;20035;-93
2023/06/30 00:23:27;;;;;;;21.02;5.65;;;;;;;;;;5116804;27;20561;-91
2023/06/30 00:25:54;;;;;;;13.70;6.10;;;;;;;;;;5118799;27;20120;-93
2023/06/30 00:28:20;;;;;;;14.55;5.75;;;;;;;;;;5090047;27;20499;-85
2023/06/30 00:30:46;;;;;;;16.17;5.60;;;;;;;;;;5106275;27;20048;-92
2023/06/30 00:33:12;;;;;;;15.23;5.75;;;;;;;;;;5105325;27;20599;-90
2023/06/30 00:35:38;;;;;;;16.90;6.07;;;;;;;;;;5119218;27;20051;-80
2023/06/30 00:38:04;;;;;;;15.55;5.93;;;;;;;;;;5086748;27;20551;-90
2023/06/30 00:40:30;;;;;;;18.65;6.50;;;;;;;;;;5105617;27;20047;-88
2023/06/30 00:42:56;;;;;;;19.73;6.18;;;;;;;;;;5101518;28;20047;-93
2023/06/30 00:45:22;;;;;;;12.75;6.07;;;;;;;;;;5104868;27;20035;-87
2023/06/30 00:47:49;;;;;;;11.77;5.97;;;;;;;;;;5087422;27;20043;-86
2023/06/30 00:50:15;;;;;;;16.45;6.30;;;;;;;;;;5107717;27;20039;-91
2023/06/30 00:52:43;;;;;;;12.40;6.18;;;;;;;;;;5104477;27;20039;-90
2023/06/30 00:55:09;;;;;;;17.20;6.53;;;;;;;;;;5126883;27;20537;-91
2023/06/30 00:57:35;;;;;;;13.15;6.70;;;;;;;;;;5104666;27;20498;-94
2023/06/30 01:00:05;;;;;;;22.40;6.47;;;;;;;;;;5106653;27;20443;-83
2023/06/30 01:02:34;;;;;;;16.17;6.07;;;;;;;;;;5105244;27;20147;-94
2023/06/30 01:05:03;;;;;;;17.88;7.07;;;;;;;;;;5102676;27;20039;-86
2023/06/30 01:07:32;;;;;;;16.65;6.93;;;;;;;;;;5104272;28;20051;-88
2023/06/30 01:10:01;;;;;;;15.55;6.13;;;;;;;;;;5106257;27;20929;-86
2023/06/30 01:12:27;;;;;;;14.02;6.07;;;;;;;;;;5101608;27;20643;-92
2023/06/30 01:14:54;;;;;;;12.38;6.10;;;;;;;;;;5083111;27;20122;-94
2023/06/30 01:17:22;;;;;;;14.02;6.18;;;;;;;;;;5083705;27;20043;-84
2023/06/30 01:19:50;;;;;;;16.52;6.03;;;;;;;;;;5105643;27;20083;-84
2023/06/30 01:22:22;;;;;;;14.38;5.55;;;;;;;;;;5101105;27;20039;-85
2023/06/30 01:24:49;;;;;;;13.27;5.50;;;;;;;;;;5099578;27;20039;-80
2023/06/30 01:27:16;;;;;;;16.55;5.53;;;;;;;;;;5099379;27;20081;-84
2023/06/30 01:29:42;;;;;;;18.60;5.25;;;;;;;;;;5106241;27;20051;-82
2023/06/30 01:32:09;;;;;;;14.02;4.85;;;;;;;;;;5100620;27;20031;-88
2023/06/30 01:34:35;;;;;;;12.75;5.00;;;;;;;;;;5103373;27;20042;-91
2023/06/30 01:37:01;;;;;;;15.18;5.15;;;;;;;;;;5122151;27;20166;-79
2023/06/30 01:39:27;;;;;;;12.63;5.18;;;;;;;;;;5119284;27;20452;-82
2023/06/30 01:41:54;;;;;;;12.48;4.80;;;;;;;;;;5101817;27;20051;-84
2023/06/30 01:44:20;;;;;;;13.32;5.45;;;;;;;;;;5094757;27;20504;-78
2023/06/30 01:46:46;;;;;;;11.90;4.90;;;;;;;;;;5121426;27;20584;-80
2023/06/30 01:49:13;;;;;;;13.18;4.88;;;;;;;;;;5116835;27;20034;-85
2023/06/30 01:51:39;;;;;;;12.23;5.28;;;;;;;;;;5086174;27;20529;-79
2023/06/30 01:54:05;;;;;;;16.40;4.95;;;;;;;;;;5102026;27;20043;-81
2023/06/30 01:56:31;;;;;;;12.52;5.18;;;;;;;;;;5100594;27;20046;-85
2023/06/30 01:58:57;;;;;;;13.38;5.05;;;;;;;;;;5088268;27;20130;-89
2023/06/30 02:01:23;;;;;;;15.80;5.40;;;;;;;;;;5121053;27;20034;-83
2023/06/30 02:03:50;;;;;;;17.42;5.10;;;;;;;;;;5103476;27;20129;-79
2023/06/30 02:06:16;;;;;;;13.82;4.70;;;;;;;;;;5084338;27;20043;-83
2023/06/30 02:08:42;;;;;;;15.00;5.15;;;;;;;;;;5103307;27;20110;-91
2023/06/30 02:11:08;;;;;;;15.02;6.20;;;;;;;;;;5093075;27;20150;-94
2023/06/30 02:13:35;;;;;;;15.23;5.13;;;;;;;;;;5101381;27;20446;-80
2023/06/30 02:16:01;;;;;;;13.25;5.18;;;;;;;;;;5091774;27;20047;-87
2023/06/30 02:18:27;;;;;;;13.80;5.63;;;;;;;;;;5108538;27;20043;-92
2023/06/30 02:20:53;;;;;;;15.00;5.43;;;;;;;;;;5105773;27;20038;-90
2023/06/30 02:23:19;;;;;;;14.10;5.32;;;;;;;;;;5102463;27;20031;-81
2023/06/30 02:25:46;;;;;;;13.77;5.47;;;;;;;;;;5104377;27;20071;-91
2023/06/30 02:28:11;;;;;;;13.90;5.90;;;;;;;;;;5105076;27;20111;-89
2023/06/30 02:30:37;;;;;;;12.38;5.65;;;;;;;;;;5105101;27;20032;-89
2023/06/30 02:33:03;;;;;;;16.27;5.65;;;;;;;;;;5105031;27;20057;-92
2023/06/30 02:35:29;;;;;;;13.68;6.18;;;;;;;;;;5099503;27;20068;-83
2023/06/30 02:37:55;;;;;;;19.63;6.30;;;;;;;;;;5102003;27;20514;-80
2023/06/30 02:40:21;;;;;;;12.15;5.63;;;;;;;;;;5094905;27;20047;-81
2023/06/30 02:42:47;;;;;;;14.48;5.43;;;;;;;;;;5100074;28;20130;-90
2023/06/30 02:45:13;;;;;;;16.15;6.05;;;;;;;;;;5101504;27;20061;-92
2023/06/30 02:47:40;;;;;;;13.20;5.90;;;;;;;;;;5104906;27;20070;-90
2023/06/30 02:50:06;;;;;;;15.18;6.22;;;;;;;;;;5121552;27;20458;-85
2023/06/30 02:52:32;;;;;;;13.98;5.28;;;;;;;;;;5123390;27;20491;-91
2023/06/30 02:54:58;;;;;;;11.60;6.28;;;;;;;;;;5104966;27;20035;-85
2023/06/30 02:57:25;;;;;;;16.33;6.30;;;;;;;;;;5087001;27;20039;-84
2023/06/30 02:59:51;;;;;;;20.27;6.20;;;;;;;;;;5104924;27;20066;-81
2023/06/30 03:02:17;;;;;;;16.33;5.93;;;;;;;;;;5102620;28;20043;-80
2023/06/30 03:04:43;;;;;;;15.05;5.10;;;;;;;;;;5083261;28;20395;-90
2023/06/30 03:07:09;;;;;;;14.90;5.75;;;;;;;;;;5116905;28;20040;-92
2023/06/30 03:09:35;;;;;;;16.08;5.47;;;;;;;;;;5103753;28;20042;-80
2023/06/30 03:12:01;;;;;;;12.85;5.93;;;;;;;;;;5109724;27;20039;-81
2023/06/30 03:14:27;;;;;;;14.20;5.53;;;;;;;;;;5103683;27;20050;-78
2023/06/30 03:16:55;;;;;;;14.95;5.63;;;;;;;;;;5090846;27;20039;-85
2023/06/30 03:19:21;;;;;;;17.10;5.63;;;;;;;;;;5106486;27;20442;-80
2023/06/30 03:21:47;;;;;;;13.45;5.97;;;;;;;;;;5106529;27;20085;-91
2023/06/30 03:24:13;;;;;;;16.67;5.70;;;;;;;;;;5113490;27;20520;-86
2023/06/30 03:26:39;;;;;;;14.45;5.78;;;;;;;;;;5126729;27;20054;-81
2023/06/30 03:29:05;;;;;;;14.80;5.93;;;;;;;;;;5125909;27;20812;-92
2023/06/30 03:31:31;;;;;;;12.23;5.70;;;;;;;;;;5106864;27;20045;-81
2023/06/30 03:33:58;;;;;;;14.40;5.75;;;;;;;;;;5104684;27;20040;-79
2023/06/30 03:36:25;;;;;;;17.63;6.50;;;;;;;;;;5122668;27;20091;-89
2023/06/30 03:38:51;;;;;;;21.30;5.60;;;;;;;;;;5104857;27;20313;-85
2023/06/30 03:41:17;;;;;;;11.88;5.35;;;;;;;;;;5125522;27;20040;-81
2023/06/30 03:43:43;;;;;;;12.13;5.28;;;;;;;;;;5093250;27;20095;-85
2023/06/30 03:46:11;;;;;;;16.67;5.95;;;;;;;;;;5112014;27;20043;-89
2023/06/30 03:48:37;;;;;;;12.33;5.00;;;;;;;;;;5124840;27;20039;-85
2023/06/30 03:51:03;;;;;;;17.48;5.78;;;;;;;;;;5106830;27;20080;-93
2023/06/30 03:53:29;;;;;;;12.18;5.13;;;;;;;;;;5117626;27;20043;-92
2023/06/30 03:55:57;;;;;;;17.83;5.75;;;;;;;;;;5115833;27;20436;-93
2023/06/30 03:58:23;;;;;;;11.48;5.43;;;;;;;;;;5110157;27;20054;-89
2023/06/30 04:00:49;;;;;;;15.63;5.80;;;;;;;;;;5125625;27;20047;-92
2023/06/30 04:03:15;;;;;;;12.93;5.35;;;;;;;;;;5128924;27;20096;-92
2023/06/30 04:05:41;;;;;;;17.30;5.80;;;;;;;;;;5127693;27;20585;-80
2023/06/30 04:08:07;;;;;;;14.27;5.72;;;;;;;;;;5111720;27;20043;-88
2023/06/30 04:10:33;;;;;;;15.98;5.30;;;;;;;;;;5088002;27;20047;-86
2023/06/30 04:12:59;;;;;;;13.60;5.57;;;;;;;;;;5116777;27;20118;-84
2023/06/30 04:15:25;;;;;;;16.58;5.32;;;;;;;;;;5117919;27;20043;-92
2023/06/30 04:17:51;;;;;;;13.48;4.65;;;;;;;;;;5137282;27;20036;-81
2023/06/30 04:20:17;;;;;;;16.30;5.68;;;;;;;;;;5119931;27;20085;-82
2023/06/30 04:22:43;;;;;;;9.80;5.28;;;;;;;;;;5126702;27;20051;-87
2023/06/30 04:25:10;;;;;;;15.73;5.05;;;;;;;;;;5099228;27;20035;-84
2023/06/30 04:27:36;;;;;;;14.40;5.60;;;;;;;;;;5120720;27;20114;-91
2023/06/30 04:30:07;;;;;;;14.82;5.15;;;;;;;;;;5123889;27;20031;-90
2023/06/30 04:32:33;;;;;;;15.13;5.30;;;;;;;;;;5116111;27;20108;-92
2023/06/30 04:35:02;;;;;;;16.08;5.57;;;;;;;;;;5119900;27;20031;-91
2023/06/30 04:37:30;;;;;;;14.13;5.10;;;;;;;;;;5088605;27;20059;-87
2023/06/30 04:39:57;;;;;;;16.33;5.00;;;;;;;;;;5093116;27;20208;-88
2023/06/30 04:42:23;;;;;;;15.68;5.63;;;;;;;;;;5114517;27;20050;-90
2023/06/30 04:44:50;;;;;;;13.23;4.97;;;;;;;;;;5097065;27;20065;-91
2023/06/30 04:47:16;;;;;;;13.77;5.13;;;;;;;;;;5107443;27;20047;-79
2023/06/30 04:49:42;;;;;;;13.80;5.30;;;;;;;;;;5107060;27;20096;-84
2023/06/30 04:52:08;;;;;;;17.50;5.35;;;;;;;;;;5108266;27;20039;-89
2023/06/30 04:54:34;;;;;;;12.27;5.18;;;;;;;;;;5106681;27;20127;-92
2023/06/30 04:57:00;;;;;;;15.23;5.40;;;;;;;;;;5105726;27;20036;-83
2023/06/30 04:59:26;;;;;;;15.35;5.30;;;;;;;;;;5127833;27;20054;-91
2023/06/30 05:01:52;;;;;;;15.18;5.28;;;;;;;;;;5132212;27;20407;-87
2023/06/30 05:04:18;;;;;;;16.00;5.05;;;;;;;;;;5110602;27;20065;-88
2023/06/30 05:06:44;;;;;;;12.73;4.68;;;;;;;;;;5107429;27;20521;-88
2023/06/30 05:09:10;;;;;;;16.35;4.85;;;;;;;;;;5110531;27;20170;-87
2023/06/30 05:11:36;;;;;;;12.68;4.50;;;;;;;;;;5107902;27;20387;-88
2023/06/30 05:14:02;;;;;;;12.25;4.47;;;;;;;;;;5108537;27;20077;-93
2023/06/30 05:16:28;;;;;;;9.55;4.50;;;;;;;;;;5117126;27;20035;-93
2023/06/30 05:18:55;;;;;;;15.07;5.03;;;;;;;;;;5108846;27;20048;-78
2023/06/30 05:21:21;;;;;;;12.07;4.90;;;;;;;;;;5096312;28;20077;-92
2023/06/30 05:23:47;;;;;;;10.80;4.72;;;;;;;;;;5124602;27;20067;-84
2023/06/30 05:26:13;;;;;;;8.80;4.45;;;;;;;;;;5122562;27;20043;-88
2023/06/30 05:28:39;;;;;;;7.50;3.88;;;;;;;;;;5129468;27;20049;-90
2023/06/30 05:31:05;;;;;;;11.25;4.25;;;;;;;;;;5130759;27;20102;-93
2023/06/30 05:33:31;;;;;;;11.23;4.07;;;;;;;;;;5123487;27;20051;-79
2023/06/30 05:35:57;;;;;;;13.65;3.90;;;;;;;;;;5125375;27;20086;-88
2023/06/30 05:38:23;;;;;;;15.75;4.10;;;;;;;;;;5124668;27;20555;-80
2023/06/30 05:40:49;;;;;;;14.88;4.30;;;;;;;;;;5119169;27;20035;-87
2023/06/30 05:43:17;;;;;;;13.02;3.80;;;;;;;;;;5114290;27;20498;-87
2023/06/30 05:45:43;;;;;;;11.68;4.22;;;;;;;;;;5104035;27;20125;-80
2023/06/30 05:48:09;;;;;;;15.45;3.60;;;;;;;;;;5105138;27;20170;-88
2023/06/30 05:50:35;;;;;;;12.93;4.53;;;;;;;;;;5090394;27;20124;-79
2023/06/30 05:53:03;;;;;;;10.73;3.50;;;;;;;;;;5102194;27;20057;-78
2023/06/30 05:55:29;;;;;;;10.55;3.67;;;;;;;;;;5121535;27;20096;-84
2023/06/30 05:57:55;;;;;;;13.38;3.88;;;;;;;;;;5103315;27;20091;-85
2023/06/30 06:00:21;;;;;;;11.00;3.72;;;;;;;;;;5122668;27;20489;-78
2023/06/30 06:02:47;;;;;;;8.63;3.60;;;;;;;;;;5121258;27;20043;-79
2023/06/30 06:05:13;;;;;;;8.98;3.05;;;;;;;;;;5100995;27;20095;-78
2023/06/30 06:07:40;;;;;;;11.65;3.60;;;;;;;;;;5122363;27;20514;-79
2023/06/30 06:10:06;;;;;;;8.95;3.03;;;;;;;;;;5104425;27;20440;-80
2023/06/30 06:12:32;;;;;;;10.70;3.40;;;;;;;;;;5120580;27;20064;-83
2023/06/30 06:14:58;;;;;;;12.88;3.03;;;;;;;;;;5100138;27;20051;-81
2023/06/30 06:17:24;;;;;;;8.35;2.92;;;;;;;;;;5084244;27;20048;-83
2023/06/30 06:19:52;;;;;;;8.25;3.15;;;;;;;;;;5099183;28;20456;-83
2023/06/30 06:22:18;;;;;;;10.35;3.35;;;;;;;;;;5104070;27;20050;-78
2023/06/30 06:24:43;;;;;;;10.05;2.65;;;;;;;;;;5117659;27;20055;-79
2023/06/30 06:27:10;;;;;;;9.80;2.40;;;;;;;;;;5118453;27;20150;-80
2023/06/30 06:29:36;;;;;;;11.00;2.90;;;;;;;;;;5119346;27;20046;-81
2023/06/30 06:32:01;;;;;;;6.82;2.28;;;;;;;;;;5098945;27;20506;-79
2023/06/30 06:34:27;;;;;;;7.78;2.47;;;;;;;;;;5119653;27;20034;-79
2023/06/30 06:36:53;;;;;;;11.45;2.55;;;;;;;;;;5101034;27;20577;-80
2023/06/30 06:39:20;;;;;;;11.23;2.50;;;;;;;;;;5119159;27;20689;-80
2023/06/30 06:41:46;;;;;;;8.45;2.35;;;;;;;;;;5102418;27;20395;-84
2023/06/30 06:44:12;;;;;;;6.00;2.50;;;;;;;;;;5083298;27;20050;-82
2023/06/30 06:46:38;;;;;;;8.32;2.20;;;;;;;;;;5098725;27;20051;-81
2023/06/30 06:49:04;;;;;;;7.70;1.95;;;;;;;;;;5103691;27;20042;-81
2023/06/30 06:51:32;;;;;;;9.60;1.92;;;;;;;;;;5100633;27;20537;-84
2023/06/30 06:53:58;;;;;;;8.27;2.10;;;;;;;;;;5115534;27;20064;-87
2023/06/30 06:56:24;;;;;;;6.75;1.60;;;;;;;;;;5120263;27;20035;-86
2023/06/30 06:58:53;;;;;;;8.68;1.75;;;;;;;;;;5104082;27;20430;-91
2023/06/30 07:01:19;;;;;;;9.85;1.88;;;;;;;;;;5120885;27;20540;-89
2023/06/30 07:03:46;;;;;;;10.70;1.70;;;;;;;;;;5104334;28;20047;-84
2023/06/30 07:06:13;;;;;;;7.78;1.73;;;;;;;;;;5122280;27;20122;-82
2023/06/30 07:08:39;;;;;;;8.98;2.08;;;;;;;;;;5101802;28;20080;-85
2023/06/30 07:11:06;;;;;;;6.70;1.80;;;;;;;;;;5102637;28;20067;-79
2023/06/30 07:13:32;;;;;;;11.13;1.88;;;;;;;;;;5085276;28;20495;-87
2023/06/30 07:15:58;;;;;;;4.43;1.50;;;;;;;;;;5123322;28;20118;-82
2023/06/30 07:18:25;;;;;;;7.40;1.52;;;;;;;;;;5118990;28;20039;-88
2023/06/30 07:20:53;;;;;;;9.98;1.80;;;;;;;;;;5123463;28;20044;-82
2023/06/30 07:23:19;;;;;;;4.97;1.40;;;;;;;;;;5117499;27;20565;-81
2023/06/30 07:25:45;;;;;;;7.25;1.50;;;;;;;;;;5101569;28;20049;-79
2023/06/30 07:28:11;;;;;;;7.95;1.63;;;;;;;;;;5083470;28;20040;-88
2023/06/30 07:30:37;;;;;;;8.23;1.65;;;;;;;;;;5101291;28;20042;-83
2023/06/30 07:33:03;;;;;;;6.65;1.40;;;;;;;;;;5097826;28;20808;-83
2023/06/30 07:35:29;;;;;;;7.00;1.50;;;;;;;;;;5082489;27;20078;-80
2023/06/30 07:37:55;;;;;;;8.27;1.50;;;;;;;;;;5117209;27;20110;-87
2023/06/30 07:40:24;;;;;;;8.55;1.83;;;;;;;;;;5117398;28;20527;-85
2023/06/30 07:42:50;;;;;;;6.60;1.20;;;;;;;;;;5084192;28;20085;-90
2023/06/30 07:45:17;;;;;;;4.85;1.27;;;;;;;;;;5076117;28;20063;-79
2023/06/30 07:47:44;;;;;;;5.20;1.30;;;;;;;;;;5106438;28;20050;-82
2023/06/30 07:50:13;;;;;;;6.47;1.70;;;;;;;;;;5092762;27;20131;-79
2023/06/30 07:52:43;;;;;;;4.60;1.48;;;;;;;;;;5081670;28;20051;-79
2023/06/30 07:55:10;;;;;;;4.60;1.23;;;;;;;;;;5099178;28;20096;-82
2023/06/30 07:57:36;;;;;;;5.93;1.10;;;;;;;;;;5096932;27;20502;-80
2023/06/30 08:00:02;;;;;;;6.97;1.50;;;;;;;;;;5095988;27;20052;-86
2023/06/30 08:02:28;;;;;;;6.13;1.30;;;;;;;;;;5095158;27;20051;-82
2023/06/30 08:04:57;;;;;;;7.78;1.30;;;;;;;;;;5095476;27;20132;-81
2023/06/30 08:10:14;;;;;;;7.75;1.67;;;;;;;;;;5239229;23;20043;-87
2023/06/30 08:12:40;;;;;;;5.63;1.40;;;;;;;;;;5093030;27;20074;-81
2023/06/30 08:15:06;;;;;;;6.75;1.55;;;;;;;;;;5108947;27;20147;-82
2023/06/30 08:17:32;;;;;;;12.18;1.50;;;;;;;;;;5098351;27;21019;-86
2023/06/30 08:20:00;;;;;;;6.53;1.10;;;;;;;;;;5106456;27;20109;-90
2023/06/30 08:22:27;;;;;;;5.00;1.33;;;;;;;;;;5076466;27;20035;-85
2023/06/30 08:24:54;;;;;;;9.00;1.75;;;;;;;;;;5106123;27;20047;-86
2023/06/30 08:27:20;;;;;;;12.07;1.50;;;;;;;;;;5115797;27;20053;-82
2023/06/30 08:29:46;;;;;;;6.90;1.35;;;;;;;;;;5119326;27;20078;-88
2023/06/30 08:32:12;;;;;;;4.47;1.17;;;;;;;;;;5093739;27;20047;-87
2023/06/30 08:34:38;;;;;;;5.18;1.30;;;;;;;;;;5096198;27;20046;-80
2023/06/30 08:37:04;;;;;;;6.30;1.30;;;;;;;;;;5089420;28;20163;-85
2023/06/30 08:39:31;;;;;;;3.97;1.40;;;;;;;;;;5093769;27;20040;-86
2023/06/30 08:41:59;;;;;;;7.53;1.42;;;;;;;;;;5118657;27;20595;-88
2023/06/30 08:44:25;;;;;;;7.95;1.30;;;;;;;;;;5096796;27;20042;-88
2023/06/30 08:46:52;;;;;;;6.15;1.20;;;;;;;;;;5109902;27;20043;-78
2023/06/30 08:49:20;;;;;;;6.40;1.40;;;;;;;;;;5110779;27;20082;-80
2023/06/30 08:51:47;;;;;;;4.85;1.20;;;;;;;;;;5084300;27;20051;-83
2023/06/30 08:54:13;;;;;;;6.25;1.65;;;;;;;;;;5112392;27;20047;-89
2023/06/30 08:56:40;;;;;;;7.32;1.10;;;;;;;;;;5093504;27;20075;-89
2023/06/30 08:59:06;;;;;;;9.10;1.45;;;;;;;;;;5091677;27;20054;-80
2023/06/30 09:01:32;;;;;;;5.57;1.33;;;;;;;;;;5095222;27;20469;-82
2023/06/30 09:04:00;;;;;;;5.30;1.13;;;;;;;;;;5085509;27;20051;-79
2023/06/30 09:06:26;;;;;;;3.60;1.08;;;;;;;;;;5082420;27;20081;-80
2023/06/30 09:09:11;;;;;;;3.40;1.17;;;;;;;;;;5096538;27;20051;-80
2023/06/30 09:11:40;;;;;;;4.32;0.93;;;;;;;;;;5103290;27;20054;-82
2023/06/30 09:14:07;;;;;;;4.03;1.15;;;;;;;;;;5080007;27;20897;-85
2023/06/30 09:16:33;;;;;;;10.83;1.40;;;;;;;;;;5088183;27;20547;-83
2023/06/30 09:19:01;;;;;;;4.13;0.95;;;;;;;;;;5117559;27;20122;-79
2023/06/30 09:21:27;;;;;;;2.63;0.80;;;;;;;;;;5111041;27;20035;-79
2023/06/30 09:23:53;;;;;;;3.85;1.00;;;;;;;;;;5088495;27;20138;-82
2023/06/30 09:26:19;;;;;;;2.35;0.98;;;;;;;;;;5094627;27;20107;-80
2023/06/30 09:28:45;;;;;;;6.78;1.20;;;;;;;;;;5090912;27;20039;-81
2023/06/30 09:31:12;;;;;;;4.38;1.00;;;;;;;;;;5116141;27;20051;-80
2023/06/30 09:33:43;;;;;;;3.15;0.90;;;;;;;;;;5091264;27;20027;-82
2023/06/30 09:36:16;;;;;;;3.08;1.10;;;;;;;;;;5116476;27;20051;-83
2023/06/30 09:38:42;;;;;;;4.80;0.90;;;;;;;;;;5097406;27;20054;-81
2023/06/30 09:41:20;;;;;;;6.07;0.80;;;;;;;;;;5107010;27;20686;-82
2023/06/30 09:43:48;;;;;;;3.17;0.73;;;;;;;;;;5110194;27;20079;-81
2023/06/30 09:46:14;;;;;;;5.20;1.10;;;;;;;;;;5068547;28;20044;-81
2023/06/30 09:48:41;;;;;;;3.15;1.13;;;;;;;;;;5096799;27;20134;-82
2023/06/30 09:51:09;;;;;;;3.97;1.02;;;;;;;;;;5094079;27;20051;-81
2023/06/30 09:53:36;;;;;;;10.25;1.10;;;;;;;;;;5092702;27;20048;-81
2023/06/30 09:56:02;;;;;;;3.67;1.00;;;;;;;;;;5107974;27;20055;-81
2023/06/30 09:58:28;;;;;;;3.53;0.75;;;;;;;;;;5108843;27;20058;-79
2023/06/30 10:00:54;;;;;;;3.80;1.05;;;;;;;;;;5102573;27;20039;-83
2023/06/30 10:03:20;;;;;;;4.88;1.00;;;;;;;;;;5087480;28;20032;-78
2023/06/30 10:05:50;;;;;;;1.70;0.70;;;;;;;;;;5088819;27;20179;-83
2023/06/30 10:08:16;;;;;;;2.28;0.70;;;;;;;;;;5105588;27;20721;-80
2023/06/30 10:10:42;;;;;;;2.95;0.80;;;;;;;;;;5089428;27;20476;-84
2023/06/30 10:13:09;;;;;;;3.83;1.20;;;;;;;;;;5070776;27;20043;-81
2023/06/30 10:15:35;;;;;;;5.32;0.90;;;;;;;;;;5094497;27;20050;-82
2023/06/30 10:18:02;;;;;;;3.47;1.05;;;;;;;;;;5106745;27;20141;-81
2023/06/30 10:20:29;;;;;;;3.95;0.80;;;;;;;;;;5088584;27;20050;-80
2023/06/30 10:22:59;;;;;;;2.58;0.73;;;;;;;;;;5111121;27;20042;-80
2023/06/30 10:25:25;;;;;;;1.77;0.65;;;;;;;;;;5107495;27;20476;-80
2023/06/30 10:27:51;;;;;;;2.88;0.75;;;;;;;;;;5097641;27;20081;-87
2023/06/30 10:30:17;;;;;;;5.45;1.00;;;;;;;;;;5114840;27;20136;-87
2023/06/30 10:32:44;;;;;;;5.05;0.90;;;;;;;;;;5118871;27;20047;-84
2023/06/30 10:35:14;;;;;;;3.88;0.80;;;;;;;;;;5093111;27;20050;-82
2023/06/30 10:37:42;;;;;;;3.28;1.10;;;;;;;;;;5090856;27;20187;-84
2023/06/30 10:40:09;;;;;;;2.22;0.70;;;;;;;;;;5107477;27;20043;-78
2023/06/30 10:42:38;;;;;;;5.53;1.10;;;;;;;;;;5074740;27;20498;-88
2023/06/30 10:45:04;;;;;;;5.43;1.35;;;;;;;;;;5091271;27;20041;-90
2023/06/30 10:47:38;;;;;;;8.63;1.10;;;;;;;;;;5082246;27;20039;-88
2023/06/30 10:50:14;;;;;;;3.15;0.98;;;;;;;;;;5107933;27;20039;-84
2023/06/30 10:52:47;;;;;;;4.35;0.70;;;;;;;;;;5088719;28;20098;-82
2023/06/30 10:55:13;;;;;;;6.15;1.00;;;;;;;;;;5093864;28;20559;-82
2023/06/30 10:57:40;;;;;;;5.43;1.20;;;;;;;;;;5101972;27;20587;-82
2023/06/30 11:00:07;;;;;;;5.82;1.10;;;;;;;;;;5109531;27;20031;-83
2023/06/30 11:02:34;;;;;;;2.40;0.85;;;;;;;;;;5110114;27;20126;-82
2023/06/30 11:05:19;;;;;;;7.25;1.05;;;;;;;;;;5074849;28;20039;-85
2023/06/30 11:08:09;;;;;;;4.65;1.30;;;;;;;;;;5110202;27;20075;-84
2023/06/30 11:10:44;;;;;;;4.03;0.90;;;;;;;;;;5101535;27;20047;-84
2023/06/30 11:13:11;;;;;;;3.28;0.90;;;;;;;;;;5113189;28;20498;-84
2023/06/30 11:15:43;;;;;;;2.67;0.82;;;;;;;;;;5088534;28;20087;-85
2023/06/30 11:18:16;;;;;;;5.35;0.90;;;;;;;;;;5089035;28;20092;-85
2023/06/30 11:21:01;;;;;;;4.60;0.80;;;;;;;;;;5104298;28;20043;-80
2023/06/30 11:23:28;;;;;;;2.03;0.90;;;;;;;;;;5107557;28;20055;-84
2023/06/30 11:25:58;;;;;;;6.85;1.00;;;;;;;;;;5087575;28;20716;-81
2023/06/30 11:28:25;;;;;;;4.22;0.93;;;;;;;;;;5105475;28;20144;-80
2023/06/30 11:30:51;;;;;;;2.75;1.00;;;;;;;;;;5106843;28;20895;-81
2023/06/30 11:33:18;;;;;;;2.40;0.80;;;;;;;;;;5074895;27;20158;-85
2023/06/30 11:35:45;;;;;;;2.72;1.10;;;;;;;;;;5114787;27;20127;-86
2023/06/30 11:38:11;;;;;;;4.30;1.10;;;;;;;;;;5116841;27;20065;-83
2023/06/30 11:40:44;;;;;;;7.03;1.20;;;;;;;;;;5114093;27;20039;-82
2023/06/30 11:43:10;;;;;;;3.30;1.10;;;;;;;;;;5092725;27;20100;-84
2023/06/30 11:45:36;;;;;;;3.25;1.20;;;;;;;;;;5098400;27;20047;-83
2023/06/30 11:48:02;;;;;;;4.18;1.25;;;;;;;;;;5114497;27;20058;-82
2023/06/30 11:50:30;;;;;;;6.90;1.13;;;;;;;;;;5113219;27;20054;-78
2023/06/30 11:52:56;;;;;;;5.63;1.30;;;;;;;;;;5109323;27;20039;-81
2023/06/30 11:55:23;;;;;;;9.35;1.65;;;;;;;;;;5084686;28;20043;-80
2023/06/30 11:57:50;;;;;;;4.17;1.10;;;;;;;;;;5112870;27;20046;-85
2023/06/30 12:00:19;;;;;;;5.10;0.95;;;;;;;;;;5121375;27;20525;-80
2023/06/30 12:02:47;;;;;;;5.85;1.33;;;;;;;;;;5124166;27;20050;-81
2023/06/30 12:05:23;;;;;;;5.60;1.20;;;;;;;;;;5124272;27;20532;-90
2023/06/30 12:07:50;;;;;;;3.47;1.50;;;;;;;;;;5120659;27;20044;-89
2023/06/30 12:10:17;;;;;;;4.55;1.35;;;;;;;;;;5089868;27;20675;-89
2023/06/30 12:12:43;;;;;;;6.43;1.10;;;;;;;;;;5125226;27;20051;-86
2023/06/30 12:15:11;;;;;;;3.67;1.33;;;;;;;;;;5122594;27;20075;-78
2023/06/30 12:17:37;;;;;;;;;;;;;;;;;;5123016;27;20039;-90
2023/06/30 12:20:04;;;;;;;5.10;1.38;;;;;;;;;;5113056;27;19981;-85
2023/06/30 12:22:30;;;;;;;6.80;1.38;;;;;;;;;;5110326;27;20096;-79
2023/06/30 12:24:57;;;;;;;16.05;2.75;;;;;;;;;;5108623;27;20401;-83
2023/06/30 12:27:27;;;;;;;6.28;1.10;;;;;;;;;;5112730;27;20499;-77
2023/06/30 12:29:53;;;;;;;8.57;1.30;;;;;;;;;;5117245;27;20039;-88
2023/06/30 12:32:19;;;;;;;2.40;0.95;;;;;;;;;;5084758;27;20143;-89
2023/06/30 12:34:46;;;;;;;4.57;1.20;;;;;;;;;;5097472;27;20121;-81
2023/06/30 12:37:12;;;;;;;3.92;1.30;;;;;;;;;;5098208;27;20035;-81
2023/06/30 12:39:38;;;;;;;5.57;1.65;;;;;;;;;;5102503;27;20096;-78
2023/06/30 12:42:05;;;;;;;7.10;1.30;;;;;;;;;;5106019;27;20044;-85
2023/06/30 12:44:31;;;;;;;3.78;1.05;;;;;;;;;;5105456;27;20043;-88
2023/06/30 12:47:01;;;;;;;9.52;1.52;;;;;;;;;;5096172;27;20110;-81
2023/06/30 12:49:30;;;;;;;7.07;1.80;;;;;;;;;;5092564;27;20166;-79
2023/06/30 12:51:59;;;;;;;4.22;1.25;;;;;;;;;;5094760;27;20047;-81
2023/06/30 12:54:25;;;;;;;8.70;1.50;;;;;;;;;;5115713;27;21446;-79
2023/06/30 12:56:52;;;;;;;7.30;1.45;;;;;;;;;;5116745;27;20114;-89
2023/06/30 12:59:18;;;;;;;5.22;1.08;;;;;;;;;;5097713;27;20054;-81
2023/06/30 13:01:44;;;;;;;4.68;1.40;;;;;;;;;;5105520;27;20058;-84
2023/06/30 13:04:10;;;;;;;5.30;1.20;;;;;;;;;;5111554;27;20093;-86
2023/06/30 13:06:36;;;;;;;6.95;1.17;;;;;;;;;;5105400;27;20042;-86
2023/06/30 13:09:02;;;;;;;6.35;1.30;;;;;;;;;;5097479;27;20063;-91
2023/06/30 13:11:28;;;;;;;4.05;1.48;;;;;;;;;;5097825;28;20063;-88
2023/06/30 13:13:54;;;;;;;15.52;1.98;;;;;;;;;;5096847;28;20051;-88
2023/06/30 13:16:20;;;;;;;8.05;1.33;;;;;;;;;;5070540;28;20043;-89
2023/06/30 13:18:46;;;;;;;3.72;1.20;;;;;;;;;;5098509;28;20050;-88
2023/06/30 13:21:12;;;;;;;6.05;1.67;;;;;;;;;;5094504;28;20542;-82
2023/06/30 13:23:38;;;;;;;6.05;1.20;;;;;;;;;;5083691;28;20035;-79
2023/06/30 13:26:06;;;;;;;4.32;1.17;;;;;;;;;;5076024;28;20044;-82
2023/06/30 13:28:32;;;;;;;4.50;1.43;;;;;;;;;;5094343;28;20135;-87
2023/06/30 13:30:58;;;;;;;4.25;1.40;;;;;;;;;;5102022;28;20078;-77
2023/06/30 13:33:25;;;;;;;5.70;1.98;;;;;;;;;;5096327;28;20091;-79
2023/06/30 13:35:51;;;;;;;17.25;1.77;;;;;;;;;;5100084;28;20134;-78
2023/06/30 13:38:18;;;;;;;4.18;1.30;;;;;;;;;;5072939;28;20469;-80
2023/06/30 13:40:44;;;;;;;3.92;1.15;;;;;;;;;;5100167;28;20048;-80
2023/06/30 13:43:10;;;;;;;6.32;1.70;;;;;;;;;;5102166;28;20043;-84
2023/06/30 13:45:36;;;;;;;5.50;1.50;;;;;;;;;;5110132;28;20039;-90
2023/06/30 13:48:03;;;;;;;3.63;1.13;;;;;;;;;;5092447;28;20472;-87
2023/06/30 13:50:29;;;;;;;6.45;1.20;;;;;;;;;;5097179;28;20111;-92
2023/06/30 13:52:55;;;;;;;4.47;1.38;;;;;;;;;;5114833;28;20074;-93
2023/06/30 13:55:21;;;;;;;2.72;1.20;;;;;;;;;;5102220;28;20055;-82
2023/06/30 13:57:47;;;;;;;5.20;1.23;;;;;;;;;;5101489;28;20040;-96
2023/06/30 14:00:13;;;;;;;5.50;1.35;;;;;;;;;;5114689;28;20051;-80
2023/06/30 14:02:39;;;;;;;5.57;1.13;;;;;;;;;;5098484;28;20587;-79
2023/06/30 14:05:05;;;;;;;5.22;1.25;;;;;;;;;;5097810;28;20143;-86
2023/06/30 14:07:31;;;;;;;4.72;1.20;;;;;;;;;;5092773;28;20040;-81
2023/06/30 14:09:58;;;;;;;3.60;1.15;;;;;;;;;;5089278;28;20047;-78
2023/06/30 14:12:24;;;;;;;3.35;1.30;;;;;;;;;;5092920;28;20522;-78
2023/06/30 14:14:50;;;;;;;4.93;1.20;;;;;;;;;;5078614;28;20049;-79
2023/06/30 14:17:16;;;;;;;5.65;1.75;;;;;;;;;;5087217;28;20046;-90
2023/06/30 14:19:42;;;;;;;3.30;1.23;;;;;;;;;;5095099;28;20052;-82
2023/06/30 14:22:08;;;;;;;2.90;1.40;;;;;;;;;;5087174;28;20055;-88
2023/06/30 14:24:34;;;;;;;6.75;1.27;;;;;;;;;;5095858;28;20499;-88
2023/06/30 14:27:01;;;;;;;5.93;1.13;;;;;;;;;;5080281;28;20027;-89
2023/06/30 14:29:27;;;;;;;4.07;1.25;;;;;;;;;;5076978;27;20150;-88
2023/06/30 14:31:53;;;;;;;4.32;1.40;;;;;;;;;;5112508;28;20058;-81
2023/06/30 14:34:19;;;;;;;4.40;1.50;;;;;;;;;;5116567;28;20720;-85
2023/06/30 14:36:45;;;;;;;5.95;1.33;;;;;;;;;;5130607;28;20044;-81
2023/06/30 14:39:11;;;;;;;6.13;1.30;;;;;;;;;;5121576;28;20102;-79